< < Back
Terminal Aerodrome Forecast


Current Version              Previous Versions:   1  2  3  4  5  6  7  8  9  

Terminal Aerodrome Forecast

155
FTUS42 KILM 241700
TAFILM
TAF
KILM 241739Z 2418/2518 14008KT P6SM SKC
     FM250200 VRB02KT P6SM SKC
     FM250900 00000KT P6SM VCSH BKN020
     FM251500 19009KT 5SM -SHRA BKN035=

Latest METAR

562
SAUS70 KWBC 242000 RRH
MTRILM
METAR KILM 241953Z 13009KT 10SM CLR 20/04 A3004 RMK AO2 SLP172
T02000044


USA.gov is the U.S. government's official web portal to all federal, state and local government web resources and services.